Time;durP1;ratioP1;P1;durP2;ratioP2;P2;SDS_P1;SDS_P2;PMS_P1;PMS_P2;Temp;Humidity;BMP_temperature;BMP_pressure;BME280_temperature;BME280_humidity;BME280_pressure;Samples;Min_cycle;Max_cycle;Signal;HPM_P1;HPM_P2
2022/07/17 05:43:30;;;;;;;3.00;2.70;;;;;;;;;;7368180;19;20133;-70
2022/07/17 05:45:57;;;;;;;4.67;2.50;;;;;;;;;;7378457;19;20121;-70
2022/07/17 05:48:24;;;;;;;4.47;2.40;;;;;;;;;;7376061;19;20110;-70
2022/07/17 05:50:49;;;;;;;3.17;2.87;;;;;;;;;;7374359;19;20153;-70
2022/07/17 05:53:15;;;;;;;3.47;2.70;;;;;;;;;;7373886;19;20490;-70
2022/07/17 05:55:41;;;;;;;7.03;2.50;;;;;;;;;;7380875;19;20583;-70
2022/07/17 05:58:06;;;;;;;4.73;3.00;;;;;;;;;;7379401;19;20109;-70
2022/07/17 06:00:32;;;;;;;4.63;2.73;;;;;;;;;;7371175;19;20158;-70
2022/07/17 06:02:57;;;;;;;47.30;7.17;;;;;;;;;;7371037;19;20631;-70
2022/07/17 06:05:23;;;;;;;6.13;2.70;;;;;;;;;;7379781;19;20113;-70
2022/07/17 06:07:48;;;;;;;4.00;2.40;;;;;;;;;;7376452;19;20118;-70
2022/07/17 06:10:13;;;;;;;5.03;2.47;;;;;;;;;;7383783;19;20121;-70
2022/07/17 06:12:39;;;;;;;4.00;2.40;;;;;;;;;;7378565;19;20161;-70
2022/07/17 06:15:04;;;;;;;4.93;2.60;;;;;;;;;;7387122;19;20129;-70
2022/07/17 06:17:30;;;;;;;3.87;2.53;;;;;;;;;;7379548;19;20129;-70
2022/07/17 06:19:55;;;;;;;4.73;2.80;;;;;;;;;;7385155;19;20132;-70
2022/07/17 06:22:21;;;;;;;3.73;2.60;;;;;;;;;;7375507;19;20133;-70
2022/07/17 06:24:47;;;;;;;6.77;2.70;;;;;;;;;;7380585;19;20120;-70
2022/07/17 06:27:13;;;;;;;3.80;2.40;;;;;;;;;;7382857;19;20173;-70
2022/07/17 06:29:38;;;;;;;3.93;2.60;;;;;;;;;;7376203;19;20595;-70
2022/07/17 06:32:04;;;;;;;3.40;2.57;;;;;;;;;;7376033;19;20121;-70
2022/07/17 06:34:29;;;;;;;3.43;2.40;;;;;;;;;;7376650;19;20776;-70
2022/07/17 06:36:54;;;;;;;4.30;2.40;;;;;;;;;;7384721;19;20101;-70
2022/07/17 06:39:20;;;;;;;3.43;2.73;;;;;;;;;;7385506;19;20121;-70
2022/07/17 06:41:45;;;;;;;2.60;2.40;;;;;;;;;;7384288;19;20125;-70
2022/07/17 06:44:10;;;;;;;4.87;2.30;;;;;;;;;;7388216;19;20097;-72
2022/07/17 06:46:36;;;;;;;4.23;2.30;;;;;;;;;;7386834;19;20128;-72
2022/07/17 06:49:01;;;;;;;3.63;2.60;;;;;;;;;;7386944;19;20118;-72
2022/07/17 06:51:26;;;;;;;3.33;2.50;;;;;;;;;;7387398;19;20599;-72
2022/07/17 06:53:52;;;;;;;3.90;2.30;;;;;;;;;;7387933;19;20144;-72
2022/07/17 06:56:17;;;;;;;3.87;2.33;;;;;;;;;;7384971;19;20101;-72
2022/07/17 06:58:42;;;;;;;6.90;2.43;;;;;;;;;;7387018;19;20113;-72
2022/07/17 07:01:08;;;;;;;3.80;2.60;;;;;;;;;;7386314;19;20591;-72
2022/07/17 07:03:33;;;;;;;3.07;2.53;;;;;;;;;;7385344;19;20109;-72
2022/07/17 07:05:59;;;;;;;2.73;2.53;;;;;;;;;;7386498;19;20101;-72
2022/07/17 07:08:25;;;;;;;2.90;2.60;;;;;;;;;;7386263;19;20105;-70
2022/07/17 07:10:50;;;;;;;3.37;2.30;;;;;;;;;;7383770;19;20588;-72
2022/07/17 07:13:16;;;;;;;3.73;2.37;;;;;;;;;;7385998;19;20117;-72
2022/07/17 07:15:41;;;;;;;4.77;2.67;;;;;;;;;;7387227;19;20105;-72
2022/07/17 07:18:06;;;;;;;3.07;2.40;;;;;;;;;;7385226;19;20121;-72
2022/07/17 07:20:32;;;;;;;4.37;2.40;;;;;;;;;;7383644;19;20133;-71
2022/07/17 07:22:57;;;;;;;5.10;2.93;;;;;;;;;;7384569;19;20113;-72
2022/07/17 07:25:22;;;;;;;4.83;2.77;;;;;;;;;;7386128;19;20105;-72
2022/07/17 07:27:48;;;;;;;4.25;2.80;;;;;;;;;;7385889;19;20169;-72
2022/07/17 07:30:13;;;;;;;3.60;2.53;;;;;;;;;;7385024;19;20617;-72
2022/07/17 07:32:39;;;;;;;2.77;2.57;;;;;;;;;;7384680;19;20559;-72
2022/07/17 07:35:05;;;;;;;3.83;2.40;;;;;;;;;;7382479;19;20125;-72
2022/07/17 07:37:31;;;;;;;2.55;2.35;;;;;;;;;;7385214;19;20578;-72
2022/07/17 07:39:56;;;;;;;8.03;2.77;;;;;;;;;;7383413;19;20128;-72
2022/07/17 07:42:21;;;;;;;3.28;2.55;;;;;;;;;;7383273;19;20603;-72
2022/07/17 07:44:47;;;;;;;3.63;2.40;;;;;;;;;;7380710;19;20109;-72
2022/07/17 07:47:12;;;;;;;3.30;2.53;;;;;;;;;;7382689;19;20169;-72
2022/07/17 07:49:37;;;;;;;4.47;2.70;;;;;;;;;;7383701;19;20105;-72
2022/07/17 07:52:03;;;;;;;3.20;2.75;;;;;;;;;;7383898;19;20147;-72
2022/07/17 07:54:28;;;;;;;3.30;3.00;;;;;;;;;;7384320;19;20459;-72
2022/07/17 07:56:54;;;;;;;4.97;3.22;;;;;;;;;;7384030;19;20122;-72
2022/07/17 07:59:20;;;;;;;4.35;2.65;;;;;;;;;;7387200;19;20121;-72
2022/07/17 08:01:45;;;;;;;3.40;3.10;;;;;;;;;;7383747;19;20117;-72
2022/07/17 08:04:10;;;;;;;3.75;2.65;;;;;;;;;;7387546;19;20110;-72
2022/07/17 08:06:36;;;;;;;5.53;2.65;;;;;;;;;;7381297;19;20458;-72
2022/07/17 08:09:01;;;;;;;3.55;2.58;;;;;;;;;;7384469;19;20118;-72
2022/07/17 08:11:27;;;;;;;2.88;2.60;;;;;;;;;;7381736;19;20495;-72
2022/07/17 08:13:52;;;;;;;2.40;2.20;;;;;;;;;;7383507;19;20140;-72
2022/07/17 08:16:18;;;;;;;5.20;2.90;;;;;;;;;;7384457;19;20567;-72
2022/07/17 08:18:43;;;;;;;3.45;2.65;;;;;;;;;;7385557;19;20101;-72
2022/07/17 08:21:08;;;;;;;4.05;2.92;;;;;;;;;;7380598;19;20117;-72
2022/07/17 08:23:33;;;;;;;3.10;2.75;;;;;;;;;;7383178;19;20112;-72
2022/07/17 08:25:59;;;;;;;3.45;2.58;;;;;;;;;;7383225;19;20105;-72
2022/07/17 08:28:24;;;;;;;3.05;2.75;;;;;;;;;;7381435;19;20101;-72
2022/07/17 08:30:50;;;;;;;4.43;2.78;;;;;;;;;;7382890;19;20121;-72
2022/07/17 08:33:16;;;;;;;3.90;2.22;;;;;;;;;;7380779;19;20137;-72
2022/07/17 08:35:41;;;;;;;3.75;2.70;;;;;;;;;;7383039;19;20124;-72
2022/07/17 08:38:07;;;;;;;3.50;2.45;;;;;;;;;;7384138;19;20117;-72
2022/07/17 08:40:34;;;;;;;3.70;2.70;;;;;;;;;;7381732;19;20450;-72
2022/07/17 08:43:02;;;;;;;4.28;2.80;;;;;;;;;;7384603;19;20113;-72
2022/07/17 08:45:27;;;;;;;6.25;3.28;;;;;;;;;;7381646;19;20128;-72
2022/07/17 08:47:54;;;;;;;3.78;2.75;;;;;;;;;;7382387;19;20114;-72
2022/07/17 08:50:24;;;;;;;4.13;2.80;;;;;;;;;;7383521;19;20262;-72
2022/07/17 08:52:49;;;;;;;5.65;2.85;;;;;;;;;;7391448;19;20173;-72
2022/07/17 08:55:15;;;;;;;2.95;2.65;;;;;;;;;;7392061;19;20587;-72
2022/07/17 08:57:42;;;;;;;2.70;2.50;;;;;;;;;;7390824;19;20121;-72
2022/07/17 09:00:10;;;;;;;4.15;2.88;;;;;;;;;;7392631;19;20121;-72
2022/07/17 09:02:35;;;;;;;3.78;2.70;;;;;;;;;;7389132;19;20129;-72
2022/07/17 09:05:01;;;;;;;3.40;2.60;;;;;;;;;;7391571;19;20113;-72
2022/07/17 09:07:26;;;;;;;3.92;2.72;;;;;;;;;;7391732;19;20137;-72
2022/07/17 09:09:52;;;;;;;3.03;2.80;;;;;;;;;;7393094;19;20120;-72
2022/07/17 09:12:22;;;;;;;4.07;2.72;;;;;;;;;;7388020;19;20144;-72
2022/07/17 09:14:48;;;;;;;2.80;2.38;;;;;;;;;;7390880;19;20105;-72
2022/07/17 09:17:13;;;;;;;3.65;2.60;;;;;;;;;;7390532;19;20113;-72
2022/07/17 09:19:45;;;;;;;3.08;2.60;;;;;;;;;;7390619;19;20121;-72
2022/07/17 09:22:12;;;;;;;3.28;2.60;;;;;;;;;;7388358;19;20544;-72
2022/07/17 09:24:49;;;;;;;5.30;2.60;;;;;;;;;;7392725;19;20537;-72
2022/07/17 09:27:23;;;;;;;5.38;2.85;;;;;;;;;;7391401;19;20109;-72
2022/07/17 09:29:58;;;;;;;3.75;2.53;;;;;;;;;;7392067;19;20117;-72
2022/07/17 09:32:26;;;;;;;2.88;2.35;;;;;;;;;;7387733;19;20587;-72
2022/07/17 09:34:53;;;;;;;4.40;3.40;;;;;;;;;;7390723;19;20108;-72
2022/07/17 09:37:21;;;;;;;4.10;3.00;;;;;;;;;;7389870;19;20128;-72
2022/07/17 09:39:48;;;;;;;3.00;2.70;;;;;;;;;;7390064;19;20119;-72
2022/07/17 09:42:23;;;;;;;3.97;2.50;;;;;;;;;;7389245;19;20505;-72
2022/07/17 09:45:00;;;;;;;2.95;2.55;;;;;;;;;;7390411;19;20176;-72
2022/07/17 09:47:26;;;;;;;4.95;2.70;;;;;;;;;;7389316;19;20121;-72
2022/07/17 09:49:56;;;;;;;4.45;2.85;;;;;;;;;;7389972;19;20120;-72
2022/07/17 09:52:23;;;;;;;3.42;2.22;;;;;;;;;;7389101;19;20129;-72
2022/07/17 09:54:52;;;;;;;2.50;2.30;;;;;;;;;;7391815;19;20440;-72
2022/07/17 09:57:18;;;;;;;4.72;2.45;;;;;;;;;;7388974;19;20189;-72
2022/07/17 09:59:45;;;;;;;2.78;2.30;;;;;;;;;;7389384;19;20113;-73
2022/07/17 10:02:11;;;;;;;2.80;2.25;;;;;;;;;;7387698;19;20183;-72
2022/07/17 10:04:37;;;;;;;2.90;2.70;;;;;;;;;;7389391;19;20122;-72
2022/07/17 10:07:02;;;;;;;4.28;2.58;;;;;;;;;;7388851;19;20097;-73
2022/07/17 10:09:28;;;;;;;4.68;2.60;;;;;;;;;;7387449;19;20112;-72
2022/07/17 10:11:53;;;;;;;6.65;2.50;;;;;;;;;;7385605;19;20587;-72
2022/07/17 10:14:19;;;;;;;2.28;2.05;;;;;;;;;;7387709;19;20116;-73
2022/07/17 10:16:45;;;;;;;2.92;2.53;;;;;;;;;;7386613;19;20117;-72
2022/07/17 10:19:17;;;;;;;4.28;2.10;;;;;;;;;;7387427;19;21143;-72
2022/07/17 10:21:56;;;;;;;4.30;2.58;;;;;;;;;;7385563;19;20128;-72
2022/07/17 10:24:22;;;;;;;2.50;2.30;;;;;;;;;;7387800;19;20140;-72
2022/07/17 10:26:49;;;;;;;3.20;2.25;;;;;;;;;;7386280;19;20467;-72
2022/07/17 10:29:34;;;;;;;2.63;2.42;;;;;;;;;;7384000;19;20113;-72
2022/07/17 10:32:02;;;;;;;2.88;2.58;;;;;;;;;;7384356;19;20481;-72
2022/07/17 10:34:40;;;;;;;4.13;1.90;;;;;;;;;;7386515;19;20452;-72
2022/07/17 10:37:19;;;;;;;2.25;2.05;;;;;;;;;;7388139;19;20227;-72
2022/07/17 10:39:55;;;;;;;3.50;2.05;;;;;;;;;;7388162;19;20135;-73
2022/07/17 10:42:40;;;;;;;2.53;2.30;;;;;;;;;;7383237;19;20514;-73
2022/07/17 10:45:14;;;;;;;3.22;2.17;;;;;;;;;;7387847;19;20127;-72
2022/07/17 10:47:51;;;;;;;3.63;2.33;;;;;;;;;;7385344;19;20117;-72
2022/07/17 10:50:21;;;;;;;3.35;2.13;;;;;;;;;;7384413;19;20105;-73
2022/07/17 10:53:08;;;;;;;2.30;2.10;;;;;;;;;;7385584;19;20449;-73
2022/07/17 10:55:35;;;;;;;2.53;2.25;;;;;;;;;;7386740;19;20138;-73
2022/07/17 10:58:01;;;;;;;2.33;2.13;;;;;;;;;;7385762;19;20129;-73
2022/07/17 11:00:27;;;;;;;2.40;2.20;;;;;;;;;;7384626;19;20469;-72
2022/07/17 11:02:52;;;;;;;2.38;2.17;;;;;;;;;;7384670;19;20125;-73
2022/07/17 11:05:17;;;;;;;2.70;2.20;;;;;;;;;;7384595;19;20105;-73
2022/07/17 11:07:50;;;;;;;2.05;1.83;;;;;;;;;;7384813;19;20105;-73
2022/07/17 11:10:16;;;;;;;2.95;2.28;;;;;;;;;;7384733;19;20594;-73
2022/07/17 11:12:41;;;;;;;2.83;2.00;;;;;;;;;;7384769;19;20628;-73
2022/07/17 11:15:07;;;;;;;2.20;2.00;;;;;;;;;;7383752;19;20125;-73
2022/07/17 11:17:32;;;;;;;5.25;2.55;;;;;;;;;;7387117;19;20128;-73
2022/07/17 11:19:58;;;;;;;6.05;2.10;;;;;;;;;;7386077;19;20129;-73
2022/07/17 11:22:29;;;;;;;4.65;2.10;;;;;;;;;;7384673;19;20117;-73
2022/07/17 11:24:54;;;;;;;4.20;2.40;;;;;;;;;;7386374;19;20110;-73
2022/07/17 11:27:28;;;;;;;2.42;2.15;;;;;;;;;;7383935;19;20105;-73
2022/07/17 11:29:55;;;;;;;2.25;2.05;;;;;;;;;;7379647;19;20133;-73
2022/07/17 11:32:20;;;;;;;3.10;2.00;;;;;;;;;;7380510;19;20129;-73
2022/07/17 11:34:46;;;;;;;3.00;2.70;;;;;;;;;;7385271;19;20125;-73
2022/07/17 11:37:12;;;;;;;5.18;2.58;;;;;;;;;;7386687;19;20106;-73
2022/07/17 11:39:40;;;;;;;2.60;2.40;;;;;;;;;;7383113;19;20111;-73
2022/07/17 11:42:11;;;;;;;2.45;2.22;;;;;;;;;;7382088;19;20152;-73
2022/07/17 11:44:37;;;;;;;3.72;2.50;;;;;;;;;;7383930;19;20129;-73
2022/07/17 11:47:02;;;;;;;2.40;2.13;;;;;;;;;;7383390;19;20109;-73
2022/07/17 11:49:41;;;;;;;3.25;2.20;;;;;;;;;;7381894;19;20626;-73
2022/07/17 11:52:09;;;;;;;2.22;2.03;;;;;;;;;;7381374;19;20121;-73
2022/07/17 11:54:46;;;;;;;2.42;2.22;;;;;;;;;;7386060;19;20109;-73
2022/07/17 11:57:12;;;;;;;3.90;2.53;;;;;;;;;;7385699;19;20125;-73
2022/07/17 11:59:38;;;;;;;2.88;2.22;;;;;;;;;;7386353;19;20106;-73
2022/07/17 12:02:18;;;;;;;4.65;2.97;;;;;;;;;;7384069;19;20170;-73
2022/07/17 12:04:54;;;;;;;2.40;2.20;;;;;;;;;;7385614;19;20136;-73
2022/07/17 12:07:21;;;;;;;2.60;2.40;;;;;;;;;;7385374;19;20452;-73
2022/07/17 12:09:46;;;;;;;2.30;2.10;;;;;;;;;;7385324;19;20109;-73
2022/07/17 12:12:21;;;;;;;2.40;2.20;;;;;;;;;;7383942;19;20128;-73
2022/07/17 12:14:54;;;;;;;3.28;2.38;;;;;;;;;;7385576;19;20448;-73
2022/07/17 12:17:19;;;;;;;3.10;2.38;;;;;;;;;;7385041;19;20129;-73
2022/07/17 12:19:45;;;;;;;3.00;2.70;;;;;;;;;;7385316;19;20177;-73
2022/07/17 12:22:10;;;;;;;2.80;2.58;;;;;;;;;;7383000;19;20149;-73
2022/07/17 12:24:41;;;;;;;2.65;2.45;;;;;;;;;;7384980;19;20117;-73
2022/07/17 12:27:08;;;;;;;3.00;2.28;;;;;;;;;;7388577;19;20105;-73
2022/07/17 12:29:34;;;;;;;3.53;2.60;;;;;;;;;;7389767;19;20110;-73
2022/07/17 12:32:10;;;;;;;2.78;2.58;;;;;;;;;;7389292;19;20485;-73
2022/07/17 12:34:37;;;;;;;2.50;2.30;;;;;;;;;;7394405;19;20650;-73
2022/07/17 12:37:04;;;;;;;2.53;2.33;;;;;;;;;;7392000;19;20480;-73
2022/07/17 12:39:29;;;;;;;2.60;2.40;;;;;;;;;;7394202;19;20165;-73
2022/07/17 12:41:55;;;;;;;2.60;2.40;;;;;;;;;;7390261;19;20608;-73
2022/07/17 12:44:20;;;;;;;2.70;2.22;;;;;;;;;;7393452;19;20442;-74
2022/07/17 12:46:46;;;;;;;2.40;2.20;;;;;;;;;;7390810;19;20475;-74
2022/07/17 12:49:11;;;;;;;2.88;2.50;;;;;;;;;;7389366;19;20437;-74
2022/07/17 12:51:36;;;;;;;2.67;2.47;;;;;;;;;;7390872;19;20513;-73
2022/07/17 12:54:02;;;;;;;3.25;2.38;;;;;;;;;;7391686;19;20097;-74
2022/07/17 12:56:27;;;;;;;2.60;2.40;;;;;;;;;;7392083;19;20105;-74
2022/07/17 12:58:53;;;;;;;2.70;2.47;;;;;;;;;;7393206;19;20144;-73
2022/07/17 13:01:18;;;;;;;3.50;2.35;;;;;;;;;;7390143;19;20132;-74
2022/07/17 13:03:44;;;;;;;2.90;2.70;;;;;;;;;;7390872;19;20117;-74
2022/07/17 13:06:09;;;;;;;2.40;2.20;;;;;;;;;;7390410;19;20185;-73
2022/07/17 13:08:34;;;;;;;2.53;2.00;;;;;;;;;;7389438;19;20097;-74
2022/07/17 13:11:00;;;;;;;2.92;2.38;;;;;;;;;;7387661;19;20134;-73
2022/07/17 13:13:26;;;;;;;6.55;2.40;;;;;;;;;;7386789;19;20124;-74
2022/07/17 13:15:51;;;;;;;3.15;2.30;;;;;;;;;;7390758;19;20141;-74
2022/07/17 13:18:16;;;;;;;5.30;4.72;;;;;;;;;;7392091;19;20109;-73
2022/07/17 13:20:41;;;;;;;3.83;2.78;;;;;;;;;;7390206;19;20181;-74
2022/07/17 13:23:07;;;;;;;3.13;2.53;;;;;;;;;;7389689;19;20105;-74
2022/07/17 13:25:33;;;;;;;2.53;2.33;;;;;;;;;;7389598;19;20101;-74
2022/07/17 13:27:58;;;;;;;2.60;2.40;;;;;;;;;;7389907;19;20579;-74
2022/07/17 13:30:23;;;;;;;3.03;2.40;;;;;;;;;;7389424;19;20218;-74
2022/07/17 13:32:49;;;;;;;2.55;2.40;;;;;;;;;;7389631;19;20105;-74
2022/07/17 13:35:17;;;;;;;2.67;2.47;;;;;;;;;;7387021;19;20155;-74
2022/07/17 13:37:42;;;;;;;9.00;2.78;;;;;;;;;;7386274;19;20105;-74
2022/07/17 13:40:08;;;;;;;2.53;2.33;;;;;;;;;;7387052;19;20581;-74
2022/07/17 13:42:34;;;;;;;3.60;2.72;;;;;;;;;;7387375;19;20607;-74
2022/07/17 13:44:59;;;;;;;2.55;2.35;;;;;;;;;;7388561;19;20556;-74
2022/07/17 13:47:24;;;;;;;3.63;2.33;;;;;;;;;;7386491;19;20177;-74
2022/07/17 13:49:49;;;;;;;2.25;2.13;;;;;;;;;;7386487;19;20113;-74
2022/07/17 13:52:15;;;;;;;2.95;2.05;;;;;;;;;;7385604;19;20156;-74
2022/07/17 13:54:40;;;;;;;2.55;2.30;;;;;;;;;;7388833;19;20109;-74
2022/07/17 13:57:06;;;;;;;7.88;7.15;;;;;;;;;;7389464;19;20113;-74
2022/07/17 13:59:31;;;;;;;4.10;3.38;;;;;;;;;;7387197;19;20119;-74
2022/07/17 14:01:56;;;;;;;2.80;2.60;;;;;;;;;;7385912;19;20144;-74
2022/07/17 14:04:21;;;;;;;12.05;11.07;;;;;;;;;;7386505;19;20109;-74
2022/07/17 14:06:47;;;;;;;4.88;3.40;;;;;;;;;;7388438;19;20101;-74
2022/07/17 14:09:12;;;;;;;4.25;3.42;;;;;;;;;;7384637;19;20108;-74
2022/07/17 14:11:38;;;;;;;3.00;2.80;;;;;;;;;;7386908;19;20152;-74
2022/07/17 14:14:04;;;;;;;2.92;2.72;;;;;;;;;;7382528;19;20148;-74
2022/07/17 14:16:30;;;;;;;4.18;2.58;;;;;;;;;;7386351;19;20137;-74
2022/07/17 14:18:58;;;;;;;3.30;2.75;;;;;;;;;;7381850;19;20209;-74
2022/07/17 14:21:28;;;;;;;2.90;2.22;;;;;;;;;;7378521;19;20158;-74
2022/07/17 14:23:53;;;;;;;3.60;2.53;;;;;;;;;;7380367;19;20097;-74
2022/07/17 14:26:19;;;;;;;2.50;2.30;;;;;;;;;;7382741;19;20225;-74
2022/07/17 14:28:44;;;;;;;2.35;2.15;;;;;;;;;;7378627;19;20117;-74
2022/07/17 14:31:09;;;;;;;2.90;2.10;;;;;;;;;;7379182;19;20118;-74
2022/07/17 14:33:34;;;;;;;2.40;2.20;;;;;;;;;;7381190;19;20125;-74
2022/07/17 14:36:00;;;;;;;2.25;2.13;;;;;;;;;;7388868;19;20662;-74
2022/07/17 14:38:25;;;;;;;2.53;2.30;;;;;;;;;;7389308;19;20102;-74
2022/07/17 14:40:50;;;;;;;5.95;2.90;;;;;;;;;;7386192;19;20571;-74
2022/07/17 14:43:16;;;;;;;2.40;2.20;;;;;;;;;;7387301;19;20129;-74
2022/07/17 14:45:41;;;;;;;3.78;3.25;;;;;;;;;;7388808;19;20121;-74
2022/07/17 14:48:06;;;;;;;2.63;2.42;;;;;;;;;;7385548;19;20117;-74
2022/07/17 14:50:31;;;;;;;2.60;2.33;;;;;;;;;;7386420;19;20437;-74
2022/07/17 14:52:57;;;;;;;3.92;2.47;;;;;;;;;;7386723;19;20119;-74
2022/07/17 14:55:22;;;;;;;3.83;2.35;;;;;;;;;;7388031;19;20109;-74
2022/07/17 14:57:47;;;;;;;2.70;2.50;;;;;;;;;;7387046;19;20613;-74
2022/07/17 15:00:14;;;;;;;3.83;3.60;;;;;;;;;;7388102;19;20101;-74
2022/07/17 15:02:41;;;;;;;3.20;2.40;;;;;;;;;;7384228;19;20125;-74
2022/07/17 15:05:07;;;;;;;2.75;2.25;;;;;;;;;;7386678;19;20568;-74
2022/07/17 15:07:32;;;;;;;6.95;4.68;;;;;;;;;;7386767;19;20121;-74
2022/07/17 15:09:57;;;;;;;4.07;3.25;;;;;;;;;;7386521;19;20591;-73
2022/07/17 15:12:23;;;;;;;3.00;2.65;;;;;;;;;;7387391;19;20579;-74
2022/07/17 15:14:48;;;;;;;10.30;7.85;;;;;;;;;;7387638;19;20583;-74
2022/07/17 15:17:13;;;;;;;3.05;2.83;;;;;;;;;;7385950;19;20124;-74
2022/07/17 15:19:38;;;;;;;2.85;2.65;;;;;;;;;;7387095;19;20209;-73
2022/07/17 15:22:04;;;;;;;3.42;2.50;;;;;;;;;;7386166;19;20132;-73
2022/07/17 15:24:29;;;;;;;2.42;2.13;;;;;;;;;;7387658;19;20125;-73
2022/07/17 15:26:54;;;;;;;5.45;2.40;;;;;;;;;;7387687;19;20105;-73
2022/07/17 15:29:20;;;;;;;2.80;2.38;;;;;;;;;;7387238;19;20105;-73
2022/07/17 15:31:46;;;;;;;2.38;2.17;;;;;;;;;;7384321;19;20128;-73
2022/07/17 15:34:12;;;;;;;3.03;2.10;;;;;;;;;;7388305;19;20462;-73
2022/07/17 15:36:37;;;;;;;3.33;2.55;;;;;;;;;;7386283;19;20120;-73
2022/07/17 15:39:03;;;;;;;2.10;2.00;;;;;;;;;;7385855;19;20209;-73
2022/07/17 15:41:29;;;;;;;2.60;2.40;;;;;;;;;;7383721;19;20583;-73
2022/07/17 15:43:54;;;;;;;2.50;2.30;;;;;;;;;;7385845;19;20113;-73
2022/07/17 15:46:19;;;;;;;2.15;1.98;;;;;;;;;;7385009;19;20105;-73
2022/07/17 15:48:45;;;;;;;3.50;2.40;;;;;;;;;;7386742;19;20109;-73
2022/07/17 15:51:10;;;;;;;2.50;2.33;;;;;;;;;;7383674;19;20145;-73
2022/07/17 15:53:36;;;;;;;2.20;2.00;;;;;;;;;;7387713;19;20165;-73
2022/07/17 15:56:01;;;;;;;3.72;2.60;;;;;;;;;;7385284;19;20097;-73
2022/07/17 15:58:27;;;;;;;3.50;2.13;;;;;;;;;;7385876;19;20124;-73
2022/07/17 16:00:52;;;;;;;2.20;2.00;;;;;;;;;;7387805;19;20117;-72
2022/07/17 16:03:18;;;;;;;3.42;2.10;;;;;;;;;;7392879;19;20116;-73
2022/07/17 16:05:43;;;;;;;3.65;2.38;;;;;;;;;;7393993;19;20124;-73
2022/07/17 16:08:09;;;;;;;2.90;1.83;;;;;;;;;;7392295;19;20141;-73
2022/07/17 16:10:34;;;;;;;6.45;5.47;;;;;;;;;;7391683;19;20101;-72
2022/07/17 16:12:59;;;;;;;6.38;4.35;;;;;;;;;;7393216;19;20595;-73
2022/07/17 16:15:25;;;;;;;2.67;2.47;;;;;;;;;;7390848;19;20101;-72
2022/07/17 16:17:50;;;;;;;2.38;1.92;;;;;;;;;;7390447;19;20105;-72
2022/07/17 16:20:15;;;;;;;2.80;2.10;;;;;;;;;;7392734;19;20112;-72
2022/07/17 16:22:41;;;;;;;2.75;2.00;;;;;;;;;;7388155;19;20125;-72
2022/07/17 16:25:06;;;;;;;3.35;2.28;;;;;;;;;;7390788;19;20129;-72
2022/07/17 16:27:32;;;;;;;3.03;2.00;;;;;;;;;;7389868;19;20556;-72
2022/07/17 16:29:58;;;;;;;2.40;2.30;;;;;;;;;;7389500;19;20104;-72
2022/07/17 16:32:23;;;;;;;2.13;1.83;;;;;;;;;;7382968;19;20142;-72
2022/07/17 16:34:49;;;;;;;3.65;2.13;;;;;;;;;;7389771;19;20105;-72
2022/07/17 16:37:14;;;;;;;3.30;2.10;;;;;;;;;;7390063;19;20097;-72
2022/07/17 16:39:40;;;;;;;3.45;1.65;;;;;;;;;;7384672;19;20151;-72
2022/07/17 16:42:05;;;;;;;3.97;1.90;;;;;;;;;;7378502;19;20129;-72
2022/07/17 16:44:30;;;;;;;1.80;1.70;;;;;;;;;;7388784;19;20644;-72
2022/07/17 16:46:55;;;;;;;2.00;1.90;;;;;;;;;;7389198;19;20201;-72
2022/07/17 16:49:22;;;;;;;2.83;2.20;;;;;;;;;;7381781;19;20101;-72
2022/07/17 16:51:48;;;;;;;2.00;1.90;;;;;;;;;;7373942;19;20552;-72
2022/07/17 16:54:13;;;;;;;2.35;2.00;;;;;;;;;;7387397;19;20130;-72
2022/07/17 16:56:38;;;;;;;2.97;1.95;;;;;;;;;;7389176;19;20120;-72
2022/07/17 16:59:04;;;;;;;1.92;1.83;;;;;;;;;;7381292;19;20584;-73
2022/07/17 17:01:29;;;;;;;2.55;1.75;;;;;;;;;;7386589;19;20213;-72
2022/07/17 17:03:54;;;;;;;3.92;1.90;;;;;;;;;;7386015;19;20157;-72
2022/07/17 17:06:20;;;;;;;5.43;2.30;;;;;;;;;;7385071;19;20109;-72
2022/07/17 17:08:45;;;;;;;2.35;1.85;;;;;;;;;;7385132;19;20105;-72
2022/07/17 17:11:10;;;;;;;2.78;2.15;;;;;;;;;;7381738;19;20156;-71
2022/07/17 17:13:36;;;;;;;2.28;1.88;;;;;;;;;;7384118;19;20105;-72
2022/07/17 17:16:01;;;;;;;2.10;1.90;;;;;;;;;;7390345;19;20149;-72
2022/07/17 17:18:26;;;;;;;2.10;1.90;;;;;;;;;;7387960;19;20130;-72
2022/07/17 17:20:51;;;;;;;2.85;1.95;;;;;;;;;;7389724;19;20196;-72
2022/07/17 17:23:17;;;;;;;3.80;2.00;;;;;;;;;;7390630;19;20471;-72
2022/07/17 17:25:44;;;;;;;2.20;1.90;;;;;;;;;;7382700;19;20424;-72
2022/07/17 17:28:10;;;;;;;2.05;1.85;;;;;;;;;;7388356;19;20718;-72
2022/07/17 17:30:35;;;;;;;3.55;2.08;;;;;;;;;;7384348;19;20109;-72
2022/07/17 17:33:00;;;;;;;4.28;2.15;;;;;;;;;;7383853;19;20120;-72
2022/07/17 17:35:26;;;;;;;2.70;1.88;;;;;;;;;;7389037;19;20101;-72
2022/07/17 17:37:51;;;;;;;2.00;1.90;;;;;;;;;;7389137;19;20192;-72
2022/07/17 17:40:16;;;;;;;2.30;2.10;;;;;;;;;;7383647;19;20200;-72
2022/07/17 17:42:42;;;;;;;2.53;2.10;;;;;;;;;;7386876;19;20125;-72
2022/07/17 17:45:07;;;;;;;3.22;2.13;;;;;;;;;;7388181;19;20117;-72
2022/07/17 17:47:33;;;;;;;2.15;1.92;;;;;;;;;;7386551;19;20117;-72
2022/07/17 17:49:58;;;;;;;4.60;2.15;;;;;;;;;;7389843;19;20109;-72
2022/07/17 17:52:23;;;;;;;3.00;2.10;;;;;;;;;;7385509;19;20536;-72
2022/07/17 17:54:49;;;;;;;2.58;2.00;;;;;;;;;;7390129;19;20102;-72
2022/07/17 17:57:15;;;;;;;2.50;2.20;;;;;;;;;;7383271;19;20101;-72
2022/07/17 17:59:40;;;;;;;4.20;2.22;;;;;;;;;;7386074;19;20429;-72
2022/07/17 18:02:07;;;;;;;2.30;2.10;;;;;;;;;;7385620;19;20162;-72
2022/07/17 18:04:33;;;;;;;2.33;2.13;;;;;;;;;;7387506;19;20560;-72
2022/07/17 18:06:58;;;;;;;2.42;2.05;;;;;;;;;;7383890;19;20110;-72
2022/07/17 18:09:23;;;;;;;2.53;2.30;;;;;;;;;;7381354;19;20121;-72
2022/07/17 18:11:49;;;;;;;2.17;2.08;;;;;;;;;;7379756;19;20124;-72
2022/07/17 18:14:14;;;;;;;3.03;2.17;;;;;;;;;;7374014;19;20479;-72
2022/07/17 18:16:41;;;;;;;2.40;2.20;;;;;;;;;;7384227;19;20133;-72
2022/07/17 18:19:06;;;;;;;3.42;2.15;;;;;;;;;;7375486;19;20528;-72
2022/07/17 18:21:32;;;;;;;2.63;2.00;;;;;;;;;;7376291;19;20186;-72
2022/07/17 18:23:57;;;;;;;3.08;2.20;;;;;;;;;;7382285;19;20133;-72
2022/07/17 18:26:23;;;;;;;2.55;2.10;;;;;;;;;;7381022;19;20108;-72
2022/07/17 18:28:48;;;;;;;2.80;2.40;;;;;;;;;;7367451;19;20407;-72
2022/07/17 18:31:13;;;;;;;2.30;2.10;;;;;;;;;;7374176;19;20637;-72
2022/07/17 18:33:39;;;;;;;2.42;2.20;;;;;;;;;;7377329;19;20113;-72
2022/07/17 18:36:05;;;;;;;3.25;1.92;;;;;;;;;;7376582;19;20709;-72
2022/07/17 18:38:30;;;;;;;2.55;2.30;;;;;;;;;;7379787;19;20511;-72
2022/07/17 18:40:56;;;;;;;4.05;2.67;;;;;;;;;;7367060;19;20178;-72
2022/07/17 18:43:22;;;;;;;2.92;2.15;;;;;;;;;;7382617;19;20583;-72
2022/07/17 18:45:48;;;;;;;2.50;2.22;;;;;;;;;;7379968;19;20116;-72
2022/07/17 18:48:13;;;;;;;3.90;2.50;;;;;;;;;;7382653;19;20530;-72
2022/07/17 18:50:39;;;;;;;2.97;2.17;;;;;;;;;;7383282;19;20525;-72
2022/07/17 18:53:05;;;;;;;3.53;2.42;;;;;;;;;;7385112;19;20113;-72
2022/07/17 18:55:30;;;;;;;2.28;2.08;;;;;;;;;;7383451;19;20157;-72
2022/07/17 18:57:55;;;;;;;4.05;2.35;;;;;;;;;;7382286;19;20129;-72
2022/07/17 19:00:21;;;;;;;3.63;2.30;;;;;;;;;;7381547;19;20180;-72
2022/07/17 19:02:47;;;;;;;2.53;2.35;;;;;;;;;;7381849;19;20586;-72
2022/07/17 19:05:12;;;;;;;2.90;2.20;;;;;;;;;;7385865;19;20113;-72
2022/07/17 19:07:37;;;;;;;5.07;2.55;;;;;;;;;;7385049;19;20115;-72
2022/07/17 19:10:03;;;;;;;2.65;2.38;;;;;;;;;;7379177;19;20148;-72
2022/07/17 19:12:28;;;;;;;3.15;2.42;;;;;;;;;;7382352;19;20156;-72
2022/07/17 19:14:54;;;;;;;2.75;2.47;;;;;;;;;;7384642;19;20121;-72
2022/07/17 19:17:20;;;;;;;2.28;1.90;;;;;;;;;;7386209;19;20474;-72
2022/07/17 19:19:45;;;;;;;3.30;2.78;;;;;;;;;;7382785;19;20233;-72
2022/07/17 19:22:10;;;;;;;3.33;2.92;;;;;;;;;;7383394;19;20571;-72
2022/07/17 19:24:36;;;;;;;3.15;2.30;;;;;;;;;;7385384;19;20603;-72
2022/07/17 19:27:01;;;;;;;2.55;2.35;;;;;;;;;;7385962;19;20109;-72
2022/07/17 19:29:27;;;;;;;4.43;2.67;;;;;;;;;;7385054;19;20201;-72
2022/07/17 19:31:52;;;;;;;3.08;2.33;;;;;;;;;;7383710;19;20219;-72
2022/07/17 19:34:18;;;;;;;2.88;2.25;;;;;;;;;;7384376;19;20128;-72
2022/07/17 19:36:43;;;;;;;3.25;2.65;;;;;;;;;;7384913;19;20456;-72
2022/07/17 19:39:10;;;;;;;2.58;2.20;;;;;;;;;;7385798;19;20173;-72
2022/07/17 19:41:38;;;;;;;3.47;2.38;;;;;;;;;;7382975;19;20156;-72
2022/07/17 19:44:04;;;;;;;3.53;2.40;;;;;;;;;;7381933;19;20180;-72
2022/07/17 19:46:32;;;;;;;2.75;2.55;;;;;;;;;;7384949;19;20146;-72
2022/07/17 19:48:58;;;;;;;3.60;2.50;;;;;;;;;;7385752;19;20127;-72
2022/07/17 19:51:23;;;;;;;2.75;2.50;;;;;;;;;;7383423;19;20579;-72
2022/07/17 19:53:49;;;;;;;4.30;2.78;;;;;;;;;;7384242;19;20127;-72
2022/07/17 19:56:14;;;;;;;3.42;2.47;;;;;;;;;;7384995;19;20113;-72
2022/07/17 19:58:44;;;;;;;3.70;2.30;;;;;;;;;;7382880;19;20121;-72
2022/07/17 20:01:09;;;;;;;2.63;2.35;;;;;;;;;;7381374;19;20133;-72
2022/07/17 20:03:34;;;;;;;4.05;3.00;;;;;;;;;;7383234;19;20118;-72
2022/07/17 20:06:00;;;;;;;3.45;2.60;;;;;;;;;;7381593;19;20699;-72
2022/07/17 20:08:25;;;;;;;3.40;2.63;;;;;;;;;;7375698;19;20113;-72
2022/07/17 20:10:51;;;;;;;2.95;2.72;;;;;;;;;;7375964;19;20126;-72
2022/07/17 20:13:17;;;;;;;4.28;2.85;;;;;;;;;;7375343;19;20098;-72
2022/07/17 20:15:42;;;;;;;5.22;2.88;;;;;;;;;;7377062;19;20472;-72
2022/07/17 20:18:07;;;;;;;3.88;2.65;;;;;;;;;;7379862;19;20445;-72
2022/07/17 20:20:33;;;;;;;3.80;3.15;;;;;;;;;;7377711;19;20133;-72